createdAt,value
2019-02-20T00:00:59.380Z,82.65
2019-02-20T00:03:54.990Z,80.53
2019-02-20T00:06:50.256Z,80.75
2019-02-20T00:09:45.292Z,81.70
2019-02-20T00:12:41.932Z,80.70
2019-02-20T00:15:39.092Z,79.87
2019-02-20T00:18:34.197Z,84.42
2019-02-20T00:21:30.595Z,83.40
2019-02-20T00:24:25.890Z,83.12
2019-02-20T00:27:21.045Z,86.90
2019-02-20T00:30:16.623Z,88.67
2019-02-20T00:33:14.300Z,92.20
2019-02-20T00:36:09.631Z,89.80
2019-02-20T00:39:05.216Z,85.50
2019-02-20T00:42:00.979Z,90.57
2019-02-20T00:45:21.508Z,90.22
2019-02-20T00:48:29.183Z,88.45
2019-02-20T00:51:44.800Z,83.70
2019-02-20T00:54:39.999Z,83.52
2019-02-20T00:57:36.156Z,82.65
2019-02-20T01:00:31.111Z,79.95
2019-02-20T01:03:28.126Z,79.87
2019-02-20T01:06:24.644Z,76.50
2019-02-20T01:09:20.285Z,74.30
2019-02-20T01:12:15.850Z,75.70
2019-02-20T01:15:11.960Z,69.65
2019-02-20T01:18:07.550Z,70.30
2019-02-20T01:21:02.822Z,67.47
2019-02-20T01:23:57.897Z,70.22
2019-02-20T01:26:52.765Z,91.60
2019-02-20T01:29:48.398Z,100.90
2019-02-20T01:32:43.459Z,98.33
2019-02-20T01:35:38.306Z,91.82
2019-02-20T01:38:34.283Z,79.50
2019-02-20T01:41:29.633Z,77.75
2019-02-20T01:44:25.923Z,77.35
2019-02-20T01:47:21.252Z,85.85
2019-02-20T01:50:16.383Z,94.30
2019-02-20T01:53:12.408Z,88.30
2019-02-20T01:56:09.090Z,86.37
2019-02-20T01:59:04.582Z,68.02
2019-02-20T02:01:59.692Z,76.42
2019-02-20T02:04:54.968Z,76.53
2019-02-20T02:07:50.761Z,78.28
2019-02-20T02:10:48.807Z,78.60
2019-02-20T02:13:44.313Z,81.67
2019-02-20T02:16:39.295Z,84.17
2019-02-20T02:19:35.305Z,79.60
2019-02-20T02:22:30.768Z,96.57
2019-02-20T02:25:25.739Z,94.80
2019-02-20T02:28:21.151Z,89.35
2019-02-20T02:31:17.168Z,86.70
2019-02-20T02:34:12.187Z,94.77
2019-02-20T02:37:07.236Z,101.18
2019-02-20T02:40:02.357Z,95.38
2019-02-20T02:42:57.751Z,98.30
2019-02-20T02:45:53.502Z,111.97
2019-02-20T02:48:48.803Z,108.83
2019-02-20T02:51:44.087Z,104.17
2019-02-20T02:54:40.109Z,101.97
2019-02-20T02:57:35.242Z,104.47
2019-02-20T03:00:31.604Z,104.10
2019-02-20T03:03:26.681Z,100.85
2019-02-20T03:06:21.569Z,100.55
2019-02-20T03:09:17.389Z,115.50
2019-02-20T03:12:12.608Z,100.60
2019-02-20T03:15:08.323Z,99.45
2019-02-20T03:18:03.655Z,100.72
2019-02-20T03:20:58.721Z,90.17
2019-02-20T03:23:53.736Z,96.63
2019-02-20T03:26:51.825Z,88.07
2019-02-20T03:29:46.967Z,88.15
2019-02-20T03:32:42.547Z,60.95
2019-02-20T03:35:37.626Z,57.90
2019-02-20T03:38:32.986Z,53.63
2019-02-20T03:41:28.755Z,51.80
2019-02-20T03:44:26.745Z,49.75
2019-02-20T03:47:24.342Z,33.33
2019-02-20T03:50:19.999Z,35.17
2019-02-20T03:53:16.641Z,29.63
2019-02-20T03:56:11.909Z,38.38
2019-02-20T03:59:07.126Z,36.73
2019-02-20T04:02:02.066Z,37.10
2019-02-20T04:05:00.157Z,38.85
2019-02-20T04:07:55.738Z,32.08
2019-02-20T04:10:50.580Z,35.43
2019-02-20T04:13:46.641Z,36.60
2019-02-20T04:16:44.573Z,35.98
2019-02-20T04:19:42.581Z,32.88
2019-02-20T04:22:37.893Z,34.27
2019-02-20T04:25:34.108Z,38.33
2019-02-20T04:28:29.900Z,36.63
2019-02-20T04:31:27.890Z,34.00
2019-02-20T04:34:23.390Z,35.92
2019-02-20T04:37:19.839Z,35.10
2019-02-20T04:40:17.809Z,36.15
2019-02-20T04:43:13.373Z,37.42
2019-02-20T04:46:14.957Z,37.50
2019-02-20T04:49:11.920Z,37.65
2019-02-20T04:52:07.870Z,37.38
2019-02-20T04:55:03.478Z,38.85
2019-02-20T04:58:20.112Z,41.50
2019-02-20T05:01:20.109Z,42.83
2019-02-20T05:04:17.580Z,41.00
2019-02-20T05:07:21.914Z,44.38
2019-02-20T05:10:17.439Z,44.98
2019-02-20T05:13:13.756Z,43.38
2019-02-20T05:16:09.019Z,38.33
2019-02-20T05:19:06.102Z,36.50
2019-02-20T05:22:01.868Z,37.73
2019-02-20T05:25:02.453Z,40.55
2019-02-20T05:28:07.471Z,42.55
2019-02-20T05:31:03.660Z,40.70
2019-02-20T05:34:01.396Z,43.63
2019-02-20T05:37:00.524Z,41.18
2019-02-20T05:39:55.575Z,47.93
2019-02-20T05:42:55.441Z,48.17
2019-02-20T05:45:52.010Z,48.63
2019-02-20T05:48:57.303Z,50.03
2019-02-20T05:51:52.509Z,49.83
2019-02-20T05:54:47.543Z,50.25
2019-02-20T05:57:43.537Z,49.77
2019-02-20T06:00:38.961Z,49.65
2019-02-20T06:03:34.527Z,48.50
2019-02-20T06:06:29.820Z,47.38
2019-02-20T06:09:25.452Z,46.65
2019-02-20T06:12:21.651Z,48.75
2019-02-20T06:15:23.735Z,46.28
2019-02-20T06:18:20.162Z,44.88
2019-02-20T06:21:20.105Z,42.13
2019-02-20T06:24:15.743Z,38.73
2019-02-20T06:27:11.362Z,37.85
2019-02-20T06:30:06.918Z,36.45
2019-02-20T06:33:07.341Z,34.85
2019-02-20T06:36:05.338Z,34.48
2019-02-20T06:39:01.236Z,29.48
2019-02-20T06:41:57.548Z,29.00
2019-02-20T06:45:01.860Z,31.30
2019-02-20T06:48:01.037Z,29.72
2019-02-20T06:50:58.591Z,29.37
2019-02-20T06:53:54.758Z,31.30
2019-02-20T06:56:50.296Z,32.20
2019-02-20T06:59:49.900Z,31.50
2019-02-20T07:02:49.966Z,34.35
2019-02-20T07:05:57.407Z,33.70
2019-02-20T07:09:37.868Z,37.08
2019-02-20T07:13:03.936Z,40.75
2019-02-20T07:16:31.830Z,42.13
2019-02-20T07:20:05.490Z,45.65
2019-02-20T07:23:55.692Z,47.45
2019-02-20T07:27:37.123Z,48.05
2019-02-20T07:30:31.969Z,48.38
2019-02-20T07:33:28.377Z,50.12
2019-02-20T07:36:23.485Z,41.48
2019-02-20T07:39:28.856Z,39.10
2019-02-20T07:42:37.847Z,36.50
2019-02-20T07:45:44.654Z,32.88
2019-02-20T07:52:57.426Z,29.20
2019-02-20T07:56:12.075Z,27.62
2019-02-20T07:59:36.468Z,28.10
2019-02-20T08:02:34.197Z,27.40
2019-02-20T08:05:38.998Z,26.93
2019-02-20T08:08:51.381Z,27.37
2019-02-20T08:11:51.317Z,29.80
2019-02-20T08:14:48.314Z,26.62
2019-02-20T08:17:44.840Z,24.43
2019-02-20T08:20:40.482Z,25.72
2019-02-20T08:23:35.934Z,25.08
2019-02-20T08:26:34.066Z,24.45
2019-02-20T08:29:35.894Z,23.12
2019-02-20T08:32:35.426Z,23.25
2019-02-20T08:35:35.791Z,22.52
2019-02-20T08:38:31.820Z,27.55
2019-02-20T08:41:31.741Z,24.37
2019-02-20T08:44:28.745Z,26.62
2019-02-20T08:47:25.293Z,25.02
2019-02-20T08:50:28.254Z,22.98
2019-02-20T08:53:36.456Z,20.50
2019-02-20T08:56:38.417Z,21.33
2019-02-20T08:59:34.182Z,20.45
2019-02-20T09:02:35.472Z,21.30
2019-02-20T09:05:34.136Z,19.48
2019-02-20T09:08:29.507Z,20.97
2019-02-20T09:11:26.068Z,20.62
2019-02-20T09:14:45.950Z,20.08
2019-02-20T09:17:42.395Z,20.88
2019-02-20T09:20:37.309Z,20.45
2019-02-20T09:23:33.450Z,19.52
2019-02-20T09:26:29.384Z,20.82
2019-02-20T09:29:24.990Z,20.35
2019-02-20T09:32:20.389Z,20.00
2019-02-20T09:35:16.728Z,20.82
2019-02-20T09:38:16.787Z,20.90
2019-02-20T09:41:12.300Z,19.98
2019-02-20T09:44:08.709Z,22.60
2019-02-20T09:47:05.313Z,20.10
2019-02-20T09:50:02.989Z,19.35
2019-02-20T09:52:58.706Z,19.48
2019-02-20T09:55:58.346Z,20.17
2019-02-20T09:58:57.960Z,19.67
2019-02-20T10:01:55.159Z,19.92
2019-02-20T10:04:50.867Z,20.10
2019-02-20T10:07:49.878Z,20.85
2019-02-20T10:10:45.497Z,20.65
2019-02-20T10:13:41.170Z,21.45
2019-02-20T10:16:37.788Z,22.05
2019-02-20T10:19:34.386Z,20.97
2019-02-20T10:22:37.311Z,22.58
2019-02-20T10:25:34.292Z,20.30
2019-02-20T10:28:36.313Z,20.65
2019-02-20T10:31:37.566Z,21.93
2019-02-20T10:34:42.686Z,23.67
2019-02-20T10:37:43.809Z,21.75
2019-02-20T10:40:40.241Z,21.97
2019-02-20T10:43:38.516Z,22.65
2019-02-20T10:46:37.081Z,22.55
2019-02-20T10:49:35.583Z,22.13
2019-02-20T10:52:33.528Z,21.82
2019-02-20T10:55:30.046Z,22.70
2019-02-20T10:58:26.771Z,22.45
2019-02-20T11:01:23.183Z,21.57
2019-02-20T11:04:19.302Z,20.48
2019-02-20T11:07:16.683Z,22.25
2019-02-20T11:10:14.808Z,22.77
2019-02-20T11:13:11.011Z,21.82
2019-02-20T11:16:07.533Z,21.37
2019-02-20T11:19:04.254Z,24.43
2019-02-20T11:21:59.744Z,22.82
2019-02-20T11:24:55.026Z,22.15
2019-02-20T11:27:50.774Z,23.75
2019-02-20T11:30:46.239Z,23.25
2019-02-20T11:33:42.525Z,23.10
2019-02-20T11:36:40.553Z,22.50
2019-02-20T11:39:40.035Z,21.30
2019-02-20T11:42:37.260Z,21.02
2019-02-20T11:45:32.457Z,20.25
2019-02-20T11:48:28.625Z,19.82
2019-02-20T11:51:24.582Z,19.48
2019-02-20T11:54:20.350Z,19.80
2019-02-20T11:57:15.859Z,19.30
2019-02-20T12:00:13.404Z,18.92
2019-02-20T12:03:10.724Z,20.27
2019-02-20T12:06:08.532Z,19.05
2019-02-20T12:09:05.888Z,20.27
2019-02-20T12:12:02.699Z,19.67
2019-02-20T12:14:58.181Z,19.30
2019-02-20T12:17:54.023Z,19.07
2019-02-20T12:20:50.926Z,20.52
2019-02-20T12:23:46.976Z,20.30
2019-02-20T12:26:42.571Z,21.02
2019-02-20T12:29:37.898Z,22.40
2019-02-20T12:32:34.349Z,21.82
2019-02-20T12:35:33.678Z,21.95
2019-02-20T12:38:28.979Z,21.50
2019-02-20T12:41:24.294Z,21.10
2019-02-20T12:44:19.399Z,21.50
2019-02-20T12:47:14.515Z,22.00
2019-02-20T12:50:10.574Z,20.95
2019-02-20T12:53:10.793Z,22.15
2019-02-20T12:56:10.113Z,21.73
2019-02-20T12:59:07.609Z,21.27
2019-02-20T13:01:58.293Z,22.32
2019-02-20T13:04:53.590Z,22.60
2019-02-20T13:07:50.052Z,23.10
2019-02-20T13:10:45.227Z,23.98
2019-02-20T13:13:40.843Z,24.00
2019-02-20T13:16:36.334Z,25.00
2019-02-20T13:19:33.038Z,26.05
2019-02-20T13:22:28.456Z,25.65
2019-02-20T13:25:24.047Z,27.05
2019-02-20T13:28:19.322Z,27.05
2019-02-20T13:31:14.256Z,26.33
2019-02-20T13:34:13.980Z,27.50
2019-02-20T13:37:09.187Z,27.05
2019-02-20T13:40:04.216Z,27.93
2019-02-20T13:42:59.067Z,27.93
2019-02-20T13:45:54.269Z,27.95
2019-02-20T13:48:49.883Z,27.48
2019-02-20T13:51:44.944Z,27.40
2019-02-20T13:54:40.897Z,29.15
2019-02-20T13:57:36.806Z,31.23
2019-02-20T14:00:33.867Z,30.32
2019-02-20T14:03:30.066Z,30.60
2019-02-20T14:06:27.212Z,31.07
2019-02-20T14:09:22.490Z,31.35
2019-02-20T14:12:18.744Z,31.00
2019-02-20T14:15:14.867Z,30.02
2019-02-20T14:18:10.070Z,33.15
2019-02-20T14:21:05.118Z,36.20
2019-02-20T14:24:00.678Z,36.10
2019-02-20T14:26:57.498Z,32.70
2019-02-20T14:29:53.801Z,32.03
2019-02-20T14:32:48.978Z,32.50
2019-02-20T14:35:44.796Z,32.58
2019-02-20T14:38:40.263Z,31.48
2019-02-20T14:41:35.982Z,29.98
2019-02-20T14:44:31.862Z,30.20
2019-02-20T14:47:27.139Z,32.75
2019-02-20T14:50:24.624Z,33.02
2019-02-20T14:53:20.366Z,33.60
2019-02-20T14:56:16.278Z,34.92
2019-02-20T14:59:12.027Z,33.33
2019-02-20T15:02:09.458Z,36.35
2019-02-20T15:05:05.252Z,34.53
2019-02-20T15:08:02.074Z,31.23
2019-02-20T15:10:56.570Z,29.37
2019-02-20T15:13:54.218Z,29.48
2019-02-20T15:16:50.691Z,29.12
2019-02-20T15:19:46.954Z,31.33
2019-02-20T15:22:45.845Z,33.30
2019-02-20T15:25:40.807Z,32.33
2019-02-20T15:28:37.104Z,32.33
2019-02-20T15:31:33.970Z,34.88
2019-02-20T15:34:28.372Z,34.35
2019-02-20T15:37:23.236Z,33.23
2019-02-20T15:40:19.316Z,32.55
2019-02-20T15:43:14.406Z,33.98
2019-02-20T15:46:09.616Z,32.13
2019-02-20T15:49:05.742Z,30.65
2019-02-20T15:52:01.196Z,31.60
2019-02-20T15:54:56.229Z,34.53
2019-02-20T15:57:51.923Z,31.75
2019-02-20T16:00:47.616Z,30.52
2019-02-20T16:03:43.084Z,31.52
2019-02-20T16:06:38.609Z,31.50
2019-02-20T16:09:34.203Z,30.45
2019-02-20T16:12:30.193Z,31.75
2019-02-20T16:15:25.298Z,30.62
2019-02-20T16:18:21.073Z,30.43
2019-02-20T16:21:17.223Z,31.97
2019-02-20T16:24:12.602Z,33.67
2019-02-20T16:27:08.867Z,36.40
2019-02-20T16:30:04.157Z,42.50
2019-02-20T16:33:00.821Z,41.73
2019-02-20T16:35:56.269Z,39.48
2019-02-20T16:38:51.574Z,38.17
2019-02-20T16:41:46.583Z,36.77
2019-02-20T16:44:41.613Z,34.75
2019-02-20T16:47:37.460Z,32.53
2019-02-20T16:50:36.253Z,32.23
2019-02-20T16:53:31.818Z,31.48
2019-02-20T16:56:27.604Z,79.00
2019-02-20T16:59:23.546Z,46.92
2019-02-20T17:02:20.364Z,60.03
2019-02-20T17:05:17.021Z,56.13
2019-02-20T17:08:12.102Z,52.03
2019-02-20T17:11:07.694Z,107.17
2019-02-20T17:14:03.140Z,98.85
2019-02-20T17:17:00.644Z,77.30
2019-02-20T17:19:56.322Z,75.12
2019-02-20T17:22:57.276Z,58.73
2019-02-20T17:25:58.273Z,59.60
2019-02-20T17:29:02.213Z,55.95
2019-02-20T17:32:19.267Z,44.50
2019-02-20T17:35:17.166Z,36.80
2019-02-20T17:38:19.009Z,35.92
2019-02-20T17:41:30.715Z,36.95
2019-02-20T17:44:25.954Z,36.95
2019-02-20T17:47:20.797Z,35.38
2019-02-20T17:50:17.576Z,35.92
2019-02-20T17:53:12.524Z,37.20
2019-02-20T17:56:09.271Z,36.00
2019-02-20T17:59:04.210Z,34.55
2019-02-20T18:01:59.364Z,34.15
2019-02-20T18:04:56.477Z,39.05
2019-02-20T18:07:53.189Z,37.35
2019-02-20T18:10:47.978Z,38.60
2019-02-20T18:13:43.124Z,43.23
2019-02-20T18:16:38.215Z,39.90
2019-02-20T18:19:33.419Z,41.80
2019-02-20T18:22:30.400Z,40.05
2019-02-20T18:25:27.339Z,39.75
2019-02-20T18:28:24.804Z,39.23
2019-02-20T18:31:18.678Z,40.80
2019-02-20T18:34:14.857Z,43.40
2019-02-20T18:37:10.109Z,44.13
2019-02-20T18:40:05.732Z,41.48
2019-02-20T18:43:01.334Z,41.08
2019-02-20T18:45:56.514Z,41.53
2019-02-20T18:48:51.842Z,37.63
2019-02-20T18:51:47.238Z,36.83
2019-02-20T18:54:42.573Z,37.33
2019-02-20T18:57:38.025Z,37.60
2019-02-20T19:00:33.927Z,43.42
2019-02-20T19:03:28.680Z,39.50
2019-02-20T19:06:24.401Z,38.05
2019-02-20T19:09:29.406Z,37.33
2019-02-20T19:12:56.465Z,37.30
2019-02-20T19:16:29.976Z,38.33
2019-02-20T19:20:02.756Z,35.43
2019-02-20T19:23:21.070Z,33.55
2019-02-20T19:26:39.633Z,33.18
2019-02-20T19:30:14.736Z,31.73
2019-02-20T19:33:49.607Z,31.57
2019-02-20T19:37:26.283Z,30.43
2019-02-20T19:40:56.038Z,31.87
2019-02-20T19:44:14.755Z,30.60
2019-02-20T19:47:25.055Z,31.25
2019-02-20T19:50:52.858Z,29.80
2019-02-20T19:54:08.324Z,30.60
2019-02-20T19:57:50.859Z,29.67
2019-02-20T20:01:24.712Z,28.67
2019-02-20T20:04:36.621Z,30.88
2019-02-20T20:08:06.461Z,29.18
2019-02-20T20:11:29.968Z,32.70
2019-02-20T20:14:50.274Z,30.52
2019-02-20T20:18:33.748Z,30.92
2019-02-20T20:21:54.052Z,28.77
2019-02-20T20:25:03.465Z,28.92
2019-02-20T20:28:29.053Z,30.02
2019-02-20T20:32:08.907Z,30.68
2019-02-20T20:35:55.379Z,30.65
2019-02-20T20:39:23.828Z,31.30
2019-02-20T20:42:45.712Z,29.77
2019-02-20T20:46:12.883Z,34.27
2019-02-20T20:49:49.804Z,37.17
2019-02-20T20:53:27.496Z,41.18
2019-02-20T20:56:57.871Z,45.12
2019-02-20T21:00:26.231Z,47.43
2019-02-20T21:03:22.071Z,55.50
2019-02-20T21:06:29.216Z,49.25
2019-02-20T21:09:53.532Z,41.05
2019-02-20T21:13:21.219Z,45.67
2019-02-20T21:16:46.863Z,47.35
2019-02-20T21:20:17.092Z,53.23
2019-02-20T21:23:50.944Z,47.75
2019-02-20T21:27:19.365Z,41.77
2019-02-20T21:30:47.791Z,47.48
2019-02-20T21:34:13.712Z,42.08
2019-02-20T21:37:53.370Z,39.50
2019-02-20T21:41:42.937Z,34.85
2019-02-20T21:44:52.032Z,37.05
2019-02-20T21:48:26.442Z,38.90
2019-02-20T21:51:57.121Z,37.28
2019-02-20T21:55:25.748Z,36.30
2019-02-20T21:58:58.512Z,38.65
2019-02-20T22:02:26.537Z,41.13
2019-02-20T22:06:13.310Z,43.78
2019-02-20T22:09:24.859Z,48.00
2019-02-20T22:12:57.702Z,49.18
2019-02-20T22:16:14.285Z,53.15
2019-02-20T22:19:41.001Z,52.43
2019-02-20T22:23:12.285Z,49.95
2019-02-20T22:26:36.500Z,45.92
2019-02-20T22:30:13.322Z,42.05
2019-02-20T22:33:17.028Z,41.35
2019-02-20T22:36:27.181Z,40.58
2019-02-20T22:39:51.800Z,38.10
2019-02-20T22:43:10.149Z,39.35
2019-02-20T22:46:39.223Z,39.30
2019-02-20T22:49:56.463Z,38.40
2019-02-20T22:53:05.209Z,38.17
2019-02-20T22:56:35.536Z,38.55
2019-02-20T23:00:01.595Z,37.50
2019-02-20T23:03:39.994Z,36.83
2019-02-20T23:07:09.826Z,37.90
2019-02-20T23:10:58.846Z,35.63
2019-02-20T23:14:26.581Z,37.78
2019-02-20T23:17:21.477Z,36.40
2019-02-20T23:20:17.177Z,36.42
2019-02-20T23:23:12.703Z,35.70
2019-02-20T23:26:09.182Z,35.15
2019-02-20T23:29:04.528Z,34.92
2019-02-20T23:31:59.776Z,34.98
2019-02-20T23:34:55.446Z,34.75
2019-02-20T23:37:50.721Z,36.75
2019-02-20T23:40:46.355Z,36.35
2019-02-20T23:43:41.734Z,36.98
2019-02-20T23:46:36.470Z,36.55
2019-02-20T23:49:33.413Z,36.20
2019-02-20T23:52:28.642Z,36.35
2019-02-20T23:55:24.244Z,36.63
2019-02-20T23:58:19.223Z,38.60
